sensor_id;sensor_type;location;lat;lon;timestamp;temperature;humidity
19132;DHT22;9698;51.976;7.570;2023-05-16T00:00:57;14.30;99.90
19132;DHT22;9698;51.976;7.570;2023-05-16T00:03:25;14.20;99.90
19132;DHT22;9698;51.976;7.570;2023-05-16T00:05:53;14.20;99.90
19132;DHT22;9698;51.976;7.570;2023-05-16T00:08:22;14.10;99.90
19132;DHT22;9698;51.976;7.570;2023-05-16T00:10:49;14.10;99.90
19132;DHT22;9698;51.976;7.570;2023-05-16T00:13:17;14.00;99.90
19132;DHT22;9698;51.976;7.570;2023-05-16T00:15:48;14.00;99.90
19132;DHT22;9698;51.976;7.570;2023-05-16T00:21:03;13.90;99.90
19132;DHT22;9698;51.976;7.570;2023-05-16T00:23:31;13.90;99.90
19132;DHT22;9698;51.976;7.570;2023-05-16T00:28:46;13.90;99.90
19132;DHT22;9698;51.976;7.570;2023-05-16T00:31:13;13.90;99.90
19132;DHT22;9698;51.976;7.570;2023-05-16T00:33:42;13.80;99.90
19132;DHT22;9698;51.976;7.570;2023-05-16T00:36:10;13.70;99.90
19132;DHT22;9698;51.976;7.570;2023-05-16T00:38:38;13.60;99.90
19132;DHT22;9698;51.976;7.570;2023-05-16T00:41:06;13.50;99.90
19132;DHT22;9698;51.976;7.570;2023-05-16T00:43:33;13.50;99.90
19132;DHT22;9698;51.976;7.570;2023-05-16T00:46:01;13.40;99.90
19132;DHT22;9698;51.976;7.570;2023-05-16T00:48:29;13.40;99.90
19132;DHT22;9698;51.976;7.570;2023-05-16T00:50:57;13.40;99.90
19132;DHT22;9698;51.976;7.570;2023-05-16T00:53:25;13.40;99.90
19132;DHT22;9698;51.976;7.570;2023-05-16T00:55:53;13.30;99.90
19132;DHT22;9698;51.976;7.570;2023-05-16T00:58:22;13.20;99.90
19132;DHT22;9698;51.976;7.570;2023-05-16T01:00:51;13.20;99.90
19132;DHT22;9698;51.976;7.570;2023-05-16T01:03:19;13.20;99.90
19132;DHT22;9698;51.976;7.570;2023-05-16T01:05:48;13.10;99.90
19132;DHT22;9698;51.976;7.570;2023-05-16T01:08:16;13.10;99.90
19132;DHT22;9698;51.976;7.570;2023-05-16T01:10:53;13.20;99.90
19132;DHT22;9698;51.976;7.570;2023-05-16T01:13:32;13.20;99.90
19132;DHT22;9698;51.976;7.570;2023-05-16T01:16:07;13.10;99.90
19132;DHT22;9698;51.976;7.570;2023-05-16T01:18:43;13.00;99.90
19132;DHT22;9698;51.976;7.570;2023-05-16T01:21:18;13.00;99.90
19132;DHT22;9698;51.976;7.570;2023-05-16T01:23:52;13.00;99.90
19132;DHT22;9698;51.976;7.570;2023-05-16T01:26:27;12.90;99.90
19132;DHT22;9698;51.976;7.570;2023-05-16T01:28:56;13.00;99.90
19132;DHT22;9698;51.976;7.570;2023-05-16T01:31:24;13.00;99.90
19132;DHT22;9698;51.976;7.570;2023-05-16T01:33:52;12.90;99.90
19132;DHT22;9698;51.976;7.570;2023-05-16T01:36:27;12.70;99.90
19132;DHT22;9698;51.976;7.570;2023-05-16T01:39:10;12.70;99.90
19132;DHT22;9698;51.976;7.570;2023-05-16T01:41:50;12.50;99.90
19132;DHT22;9698;51.976;7.570;2023-05-16T01:44:27;12.40;99.90
19132;DHT22;9698;51.976;7.570;2023-05-16T01:46:59;12.50;99.90
19132;DHT22;9698;51.976;7.570;2023-05-16T01:49:33;12.40;99.90
19132;DHT22;9698;51.976;7.570;2023-05-16T01:52:07;12.40;99.90
19132;DHT22;9698;51.976;7.570;2023-05-16T01:54:38;12.30;99.90
19132;DHT22;9698;51.976;7.570;2023-05-16T01:57:09;12.40;99.90
19132;DHT22;9698;51.976;7.570;2023-05-16T01:59:38;12.40;99.90
19132;DHT22;9698;51.976;7.570;2023-05-16T02:02:07;12.40;99.90
19132;DHT22;9698;51.976;7.570;2023-05-16T02:04:34;12.30;99.90
19132;DHT22;9698;51.976;7.570;2023-05-16T02:07:02;12.50;99.90
19132;DHT22;9698;51.976;7.570;2023-05-16T02:09:30;12.50;99.90
19132;DHT22;9698;51.976;7.570;2023-05-16T02:11:58;12.50;99.90
19132;DHT22;9698;51.976;7.570;2023-05-16T02:14:26;12.60;99.90
19132;DHT22;9698;51.976;7.570;2023-05-16T02:16:54;12.50;99.90
19132;DHT22;9698;51.976;7.570;2023-05-16T02:19:22;12.40;99.90
19132;DHT22;9698;51.976;7.570;2023-05-16T02:21:50;12.30;99.90
19132;DHT22;9698;51.976;7.570;2023-05-16T02:24:18;12.30;99.90
19132;DHT22;9698;51.976;7.570;2023-05-16T02:26:45;12.40;99.90
19132;DHT22;9698;51.976;7.570;2023-05-16T02:29:13;12.20;99.90
19132;DHT22;9698;51.976;7.570;2023-05-16T02:31:42;12.30;99.90
19132;DHT22;9698;51.976;7.570;2023-05-16T02:34:10;12.40;99.90
19132;DHT22;9698;51.976;7.570;2023-05-16T02:36:37;12.30;99.90
19132;DHT22;9698;51.976;7.570;2023-05-16T02:39:05;12.30;99.90
19132;DHT22;9698;51.976;7.570;2023-05-16T02:41:35;12.30;99.90
19132;DHT22;9698;51.976;7.570;2023-05-16T02:44:03;12.30;99.90
19132;DHT22;9698;51.976;7.570;2023-05-16T02:46:33;12.30;99.90
19132;DHT22;9698;51.976;7.570;2023-05-16T02:49:01;12.30;99.90
19132;DHT22;9698;51.976;7.570;2023-05-16T02:51:29;12.30;99.90
19132;DHT22;9698;51.976;7.570;2023-05-16T02:53:57;12.20;99.90
19132;DHT22;9698;51.976;7.570;2023-05-16T02:56:26;12.10;99.90
19132;DHT22;9698;51.976;7.570;2023-05-16T02:58:55;12.10;99.90
19132;DHT22;9698;51.976;7.570;2023-05-16T03:01:22;12.10;99.90
19132;DHT22;9698;51.976;7.570;2023-05-16T03:03:50;11.90;99.90
19132;DHT22;9698;51.976;7.570;2023-05-16T03:06:19;11.70;99.90
19132;DHT22;9698;51.976;7.570;2023-05-16T03:08:46;11.80;99.90
19132;DHT22;9698;51.976;7.570;2023-05-16T03:11:17;11.80;99.90
19132;DHT22;9698;51.976;7.570;2023-05-16T03:13:46;11.80;99.90
19132;DHT22;9698;51.976;7.570;2023-05-16T03:16:14;11.80;99.90
19132;DHT22;9698;51.976;7.570;2023-05-16T03:18:43;11.60;99.90
19132;DHT22;9698;51.976;7.570;2023-05-16T03:21:10;11.80;99.90
19132;DHT22;9698;51.976;7.570;2023-05-16T03:23:38;11.60;99.90
19132;DHT22;9698;51.976;7.570;2023-05-16T03:26:06;11.70;99.90
19132;DHT22;9698;51.976;7.570;2023-05-16T03:28:34;11.90;99.90
19132;DHT22;9698;51.976;7.570;2023-05-16T03:31:01;11.50;99.90
19132;DHT22;9698;51.976;7.570;2023-05-16T03:33:29;11.40;99.90
19132;DHT22;9698;51.976;7.570;2023-05-16T03:35:57;11.40;99.90
19132;DHT22;9698;51.976;7.570;2023-05-16T03:38:25;11.50;99.90
19132;DHT22;9698;51.976;7.570;2023-05-16T03:40:53;11.50;99.90
19132;DHT22;9698;51.976;7.570;2023-05-16T03:43:21;11.60;99.90
19132;DHT22;9698;51.976;7.570;2023-05-16T03:45:49;11.50;99.90
19132;DHT22;9698;51.976;7.570;2023-05-16T03:48:17;11.40;99.90
19132;DHT22;9698;51.976;7.570;2023-05-16T03:50:44;11.50;99.90
19132;DHT22;9698;51.976;7.570;2023-05-16T03:53:12;11.40;99.90
19132;DHT22;9698;51.976;7.570;2023-05-16T03:55:40;11.40;99.90
19132;DHT22;9698;51.976;7.570;2023-05-16T03:58:08;11.50;99.90
19132;DHT22;9698;51.976;7.570;2023-05-16T04:00:36;11.40;99.90
19132;DHT22;9698;51.976;7.570;2023-05-16T04:03:03;11.40;99.90
19132;DHT22;9698;51.976;7.570;2023-05-16T04:05:32;11.40;99.90
19132;DHT22;9698;51.976;7.570;2023-05-16T04:10:45;11.40;99.90
19132;DHT22;9698;51.976;7.570;2023-05-16T04:13:14;11.40;99.90
19132;DHT22;9698;51.976;7.570;2023-05-16T04:15:42;11.50;99.90
19132;DHT22;9698;51.976;7.570;2023-05-16T04:18:09;11.30;99.90
19132;DHT22;9698;51.976;7.570;2023-05-16T04:20:37;11.10;99.90
19132;DHT22;9698;51.976;7.570;2023-05-16T04:23:05;11.60;99.90
19132;DHT22;9698;51.976;7.570;2023-05-16T04:25:33;11.30;99.90
19132;DHT22;9698;51.976;7.570;2023-05-16T04:28:01;11.30;99.90
19132;DHT22;9698;51.976;7.570;2023-05-16T04:30:28;11.40;99.90
19132;DHT22;9698;51.976;7.570;2023-05-16T04:32:56;11.30;99.90
19132;DHT22;9698;51.976;7.570;2023-05-16T04:35:26;11.20;99.90
19132;DHT22;9698;51.976;7.570;2023-05-16T04:37:55;11.20;99.90
19132;DHT22;9698;51.976;7.570;2023-05-16T04:40:23;11.30;99.90
19132;DHT22;9698;51.976;7.570;2023-05-16T04:42:51;11.30;99.90
19132;DHT22;9698;51.976;7.570;2023-05-16T04:45:20;11.20;99.90
19132;DHT22;9698;51.976;7.570;2023-05-16T04:47:48;11.20;99.90
19132;DHT22;9698;51.976;7.570;2023-05-16T04:50:17;11.20;99.90
19132;DHT22;9698;51.976;7.570;2023-05-16T04:52:45;11.10;99.90
19132;DHT22;9698;51.976;7.570;2023-05-16T04:55:13;11.10;99.90
19132;DHT22;9698;51.976;7.570;2023-05-16T05:00:28;11.20;99.90
19132;DHT22;9698;51.976;7.570;2023-05-16T05:02:57;11.20;99.90
19132;DHT22;9698;51.976;7.570;2023-05-16T05:05:25;11.10;99.90
19132;DHT22;9698;51.976;7.570;2023-05-16T05:07:53;11.20;99.90
19132;DHT22;9698;51.976;7.570;2023-05-16T05:10:21;11.20;99.90
19132;DHT22;9698;51.976;7.570;2023-05-16T05:15:36;11.20;99.90
19132;DHT22;9698;51.976;7.570;2023-05-16T05:18:05;11.30;99.90
19132;DHT22;9698;51.976;7.570;2023-05-16T05:20:33;11.30;99.90
19132;DHT22;9698;51.976;7.570;2023-05-16T05:23:01;11.40;99.90
19132;DHT22;9698;51.976;7.570;2023-05-16T05:25:29;11.20;99.90
19132;DHT22;9698;51.976;7.570;2023-05-16T05:27:57;11.20;99.90
19132;DHT22;9698;51.976;7.570;2023-05-16T05:30:24;11.10;99.90
19132;DHT22;9698;51.976;7.570;2023-05-16T05:32:52;11.10;99.90
19132;DHT22;9698;51.976;7.570;2023-05-16T05:35:21;11.30;99.90
19132;DHT22;9698;51.976;7.570;2023-05-16T05:37:49;11.20;99.90
19132;DHT22;9698;51.976;7.570;2023-05-16T05:40:17;11.30;99.90
19132;DHT22;9698;51.976;7.570;2023-05-16T05:42:45;11.30;99.90
19132;DHT22;9698;51.976;7.570;2023-05-16T05:45:14;11.20;99.90
19132;DHT22;9698;51.976;7.570;2023-05-16T05:47:43;11.20;99.90
19132;DHT22;9698;51.976;7.570;2023-05-16T05:50:11;11.30;99.90
19132;DHT22;9698;51.976;7.570;2023-05-16T05:52:40;11.20;99.90
19132;DHT22;9698;51.976;7.570;2023-05-16T05:55:09;11.40;99.90
19132;DHT22;9698;51.976;7.570;2023-05-16T05:57:37;11.60;99.90
19132;DHT22;9698;51.976;7.570;2023-05-16T06:02:55;11.60;99.90
19132;DHT22;9698;51.976;7.570;2023-05-16T06:05:24;11.50;99.90
19132;DHT22;9698;51.976;7.570;2023-05-16T06:07:52;11.60;99.90
19132;DHT22;9698;51.976;7.570;2023-05-16T06:10:20;11.60;99.90
19132;DHT22;9698;51.976;7.570;2023-05-16T06:12:48;11.50;99.90
19132;DHT22;9698;51.976;7.570;2023-05-16T06:15:16;11.70;99.90
19132;DHT22;9698;51.976;7.570;2023-05-16T06:17:44;11.70;99.90
19132;DHT22;9698;51.976;7.570;2023-05-16T06:20:12;11.80;99.90
19132;DHT22;9698;51.976;7.570;2023-05-16T06:22:40;11.80;99.90
19132;DHT22;9698;51.976;7.570;2023-05-16T06:25:09;11.60;99.90
19132;DHT22;9698;51.976;7.570;2023-05-16T06:27:37;11.80;99.90
19132;DHT22;9698;51.976;7.570;2023-05-16T06:30:07;11.80;99.90
19132;DHT22;9698;51.976;7.570;2023-05-16T06:32:35;11.70;99.90
19132;DHT22;9698;51.976;7.570;2023-05-16T06:35:04;11.90;99.90
19132;DHT22;9698;51.976;7.570;2023-05-16T06:37:32;11.70;99.90
19132;DHT22;9698;51.976;7.570;2023-05-16T06:40:00;11.80;99.90
19132;DHT22;9698;51.976;7.570;2023-05-16T06:42:28;11.70;99.90
19132;DHT22;9698;51.976;7.570;2023-05-16T06:44:56;11.80;99.90
19132;DHT22;9698;51.976;7.570;2023-05-16T06:47:23;11.80;99.90
19132;DHT22;9698;51.976;7.570;2023-05-16T06:49:52;11.80;99.90
19132;DHT22;9698;51.976;7.570;2023-05-16T06:52:20;11.80;99.90
19132;DHT22;9698;51.976;7.570;2023-05-16T06:54:48;11.90;99.90
19132;DHT22;9698;51.976;7.570;2023-05-16T06:57:16;12.00;99.90
19132;DHT22;9698;51.976;7.570;2023-05-16T06:59:44;12.10;99.90
19132;DHT22;9698;51.976;7.570;2023-05-16T07:02:12;12.10;99.90
19132;DHT22;9698;51.976;7.570;2023-05-16T07:04:40;12.30;99.90
19132;DHT22;9698;51.976;7.570;2023-05-16T07:07:08;12.30;99.90
19132;DHT22;9698;51.976;7.570;2023-05-16T07:09:36;12.20;99.90
19132;DHT22;9698;51.976;7.570;2023-05-16T07:12:06;12.20;98.60
19132;DHT22;9698;51.976;7.570;2023-05-16T07:14:34;12.20;99.20
19132;DHT22;9698;51.976;7.570;2023-05-16T07:17:02;12.70;99.90
19132;DHT22;9698;51.976;7.570;2023-05-16T07:19:30;12.90;99.90
19132;DHT22;9698;51.976;7.570;2023-05-16T07:21:58;13.80;99.90
19132;DHT22;9698;51.976;7.570;2023-05-16T07:24:26;14.10;99.90
19132;DHT22;9698;51.976;7.570;2023-05-16T07:26:56;14.30;99.90
19132;DHT22;9698;51.976;7.570;2023-05-16T07:29:25;14.60;99.90
19132;DHT22;9698;51.976;7.570;2023-05-16T07:31:53;14.70;99.90
19132;DHT22;9698;51.976;7.570;2023-05-16T07:34:21;14.90;99.90
19132;DHT22;9698;51.976;7.570;2023-05-16T07:36:50;15.10;99.90
19132;DHT22;9698;51.976;7.570;2023-05-16T07:39:18;15.20;99.90
19132;DHT22;9698;51.976;7.570;2023-05-16T07:41:46;14.70;1.00
19132;DHT22;9698;51.976;7.570;2023-05-16T07:44:14;14.30;1.00
19132;DHT22;9698;51.976;7.570;2023-05-16T07:46:42;14.00;16.40
19132;DHT22;9698;51.976;7.570;2023-05-16T07:49:11;13.50;1.00
19132;DHT22;9698;51.976;7.570;2023-05-16T07:51:40;13.20;1.00
19132;DHT22;9698;51.976;7.570;2023-05-16T07:54:08;12.90;1.00
19132;DHT22;9698;51.976;7.570;2023-05-16T07:56:36;12.80;1.00
19132;DHT22;9698;51.976;7.570;2023-05-16T07:59:03;12.60;50.10
19132;DHT22;9698;51.976;7.570;2023-05-16T08:01:32;12.60;48.90
19132;DHT22;9698;51.976;7.570;2023-05-16T08:04:00;12.60;12.00
19132;DHT22;9698;51.976;7.570;2023-05-16T08:06:28;12.60;19.90
19132;DHT22;9698;51.976;7.570;2023-05-16T08:08:56;12.50;51.30
19132;DHT22;9698;51.976;7.570;2023-05-16T08:11:24;12.60;99.60
19132;DHT22;9698;51.976;7.570;2023-05-16T08:13:52;12.80;61.30
19132;DHT22;9698;51.976;7.570;2023-05-16T08:16:20;12.90;8.40
19132;DHT22;9698;51.976;7.570;2023-05-16T08:18:48;12.90;1.00
19132;DHT22;9698;51.976;7.570;2023-05-16T08:21:16;12.90;1.00
19132;DHT22;9698;51.976;7.570;2023-05-16T08:23:44;12.80;1.00
19132;DHT22;9698;51.976;7.570;2023-05-16T08:26:12;12.70;1.00
19132;DHT22;9698;51.976;7.570;2023-05-16T08:28:40;12.60;1.00
19132;DHT22;9698;51.976;7.570;2023-05-16T08:31:08;12.60;1.00
19132;DHT22;9698;51.976;7.570;2023-05-16T08:33:36;12.60;1.00
19132;DHT22;9698;51.976;7.570;2023-05-16T08:36:05;12.60;1.00
19132;DHT22;9698;51.976;7.570;2023-05-16T08:38:33;12.70;1.00
19132;DHT22;9698;51.976;7.570;2023-05-16T08:41:01;12.70;1.00
19132;DHT22;9698;51.976;7.570;2023-05-16T08:43:29;12.90;1.00
19132;DHT22;9698;51.976;7.570;2023-05-16T08:45:57;12.90;1.00
19132;DHT22;9698;51.976;7.570;2023-05-16T08:48:28;12.90;1.00
19132;DHT22;9698;51.976;7.570;2023-05-16T08:50:57;12.90;11.30
19132;DHT22;9698;51.976;7.570;2023-05-16T08:53:30;13.00;13.70
19132;DHT22;9698;51.976;7.570;2023-05-16T08:55:59;12.80;1.00
19132;DHT22;9698;51.976;7.570;2023-05-16T08:58:28;12.90;1.00
19132;DHT22;9698;51.976;7.570;2023-05-16T09:00:56;13.20;1.00
19132;DHT22;9698;51.976;7.570;2023-05-16T09:03:25;13.10;1.00
19132;DHT22;9698;51.976;7.570;2023-05-16T09:05:55;13.00;1.00
19132;DHT22;9698;51.976;7.570;2023-05-16T09:08:24;12.90;1.00
19132;DHT22;9698;51.976;7.570;2023-05-16T09:10:52;12.70;1.00
19132;DHT22;9698;51.976;7.570;2023-05-16T09:13:20;13.00;1.00
19132;DHT22;9698;51.976;7.570;2023-05-16T09:16:07;13.10;1.00
19132;DHT22;9698;51.976;7.570;2023-05-16T09:18:36;12.90;1.00
19132;DHT22;9698;51.976;7.570;2023-05-16T09:21:04;12.80;27.00
19132;DHT22;9698;51.976;7.570;2023-05-16T09:23:33;12.80;1.00
19132;DHT22;9698;51.976;7.570;2023-05-16T09:26:05;12.90;1.00
19132;DHT22;9698;51.976;7.570;2023-05-16T09:28:36;13.00;1.00
19132;DHT22;9698;51.976;7.570;2023-05-16T09:31:19;13.20;1.00
19132;DHT22;9698;51.976;7.570;2023-05-16T09:33:48;13.30;1.00
19132;DHT22;9698;51.976;7.570;2023-05-16T09:36:16;13.30;1.00
19132;DHT22;9698;51.976;7.570;2023-05-16T09:38:45;13.30;1.00
19132;DHT22;9698;51.976;7.570;2023-05-16T09:41:13;13.50;1.00
19132;DHT22;9698;51.976;7.570;2023-05-16T09:43:42;13.40;1.00
19132;DHT22;9698;51.976;7.570;2023-05-16T09:46:13;13.20;1.00
19132;DHT22;9698;51.976;7.570;2023-05-16T09:48:44;13.30;1.00
19132;DHT22;9698;51.976;7.570;2023-05-16T09:51:12;13.50;1.00
19132;DHT22;9698;51.976;7.570;2023-05-16T09:53:41;13.50;1.00
19132;DHT22;9698;51.976;7.570;2023-05-16T09:58:58;13.60;1.00
19132;DHT22;9698;51.976;7.570;2023-05-16T10:01:26;13.60;1.00
19132;DHT22;9698;51.976;7.570;2023-05-16T10:03:55;13.60;1.00
19132;DHT22;9698;51.976;7.570;2023-05-16T10:06:23;13.50;1.00
19132;DHT22;9698;51.976;7.570;2023-05-16T10:08:51;13.60;1.00
19132;DHT22;9698;51.976;7.570;2023-05-16T10:11:19;13.60;1.00
19132;DHT22;9698;51.976;7.570;2023-05-16T10:13:50;13.70;1.00
19132;DHT22;9698;51.976;7.570;2023-05-16T10:16:21;13.70;1.00
19132;DHT22;9698;51.976;7.570;2023-05-16T10:18:51;13.60;1.00
19132;DHT22;9698;51.976;7.570;2023-05-16T10:21:19;13.70;1.00
19132;DHT22;9698;51.976;7.570;2023-05-16T10:23:50;13.70;1.00
19132;DHT22;9698;51.976;7.570;2023-05-16T10:26:20;13.80;1.00
19132;DHT22;9698;51.976;7.570;2023-05-16T10:28:50;13.90;1.00
19132;DHT22;9698;51.976;7.570;2023-05-16T10:34:06;14.80;99.90
19132;DHT22;9698;51.976;7.570;2023-05-16T10:36:36;15.10;99.90
19132;DHT22;9698;51.976;7.570;2023-05-16T10:39:05;15.50;99.90
19132;DHT22;9698;51.976;7.570;2023-05-16T10:41:34;15.30;1.00
19132;DHT22;9698;51.976;7.570;2023-05-16T10:44:02;15.00;1.00
19132;DHT22;9698;51.976;7.570;2023-05-16T10:46:31;14.90;1.00
19132;DHT22;9698;51.976;7.570;2023-05-16T10:49:19;14.50;1.00
19132;DHT22;9698;51.976;7.570;2023-05-16T10:52:02;14.40;1.00
19132;DHT22;9698;51.976;7.570;2023-05-16T10:54:37;14.30;1.00
19132;DHT22;9698;51.976;7.570;2023-05-16T10:57:08;13.90;1.00
19132;DHT22;9698;51.976;7.570;2023-05-16T10:59:44;14.20;1.00
19132;DHT22;9698;51.976;7.570;2023-05-16T11:05:16;14.80;1.00
19132;DHT22;9698;51.976;7.570;2023-05-16T11:08:02;14.20;1.00
19132;DHT22;9698;51.976;7.570;2023-05-16T11:10:31;14.40;1.00
19132;DHT22;9698;51.976;7.570;2023-05-16T11:13:06;14.40;1.00
19132;DHT22;9698;51.976;7.570;2023-05-16T11:15:34;14.40;1.00
19132;DHT22;9698;51.976;7.570;2023-05-16T11:18:12;14.30;1.00
19132;DHT22;9698;51.976;7.570;2023-05-16T11:20:41;14.40;1.00
19132;DHT22;9698;51.976;7.570;2023-05-16T11:23:24;14.30;1.00
19132;DHT22;9698;51.976;7.570;2023-05-16T11:25:55;14.30;1.00
19132;DHT22;9698;51.976;7.570;2023-05-16T11:28:25;14.30;1.00
19132;DHT22;9698;51.976;7.570;2023-05-16T11:30:54;14.20;1.00
19132;DHT22;9698;51.976;7.570;2023-05-16T11:33:24;13.90;1.00
19132;DHT22;9698;51.976;7.570;2023-05-16T11:36:03;14.00;1.00
19132;DHT22;9698;51.976;7.570;2023-05-16T11:38:43;14.00;1.00
19132;DHT22;9698;51.976;7.570;2023-05-16T11:41:11;13.80;1.00
19132;DHT22;9698;51.976;7.570;2023-05-16T11:43:42;14.10;1.00
19132;DHT22;9698;51.976;7.570;2023-05-16T11:46:11;13.90;1.00
19132;DHT22;9698;51.976;7.570;2023-05-16T11:48:40;14.00;1.00
19132;DHT22;9698;51.976;7.570;2023-05-16T11:51:09;14.10;1.00
19132;DHT22;9698;51.976;7.570;2023-05-16T11:53:37;14.00;1.00
19132;DHT22;9698;51.976;7.570;2023-05-16T11:56:08;13.90;1.00
19132;DHT22;9698;51.976;7.570;2023-05-16T11:58:36;14.10;1.00
19132;DHT22;9698;51.976;7.570;2023-05-16T12:01:06;14.20;1.00
19132;DHT22;9698;51.976;7.570;2023-05-16T12:03:34;14.20;99.90
19132;DHT22;9698;51.976;7.570;2023-05-16T12:06:03;14.30;99.90
19132;DHT22;9698;51.976;7.570;2023-05-16T12:08:32;14.60;1.00
19132;DHT22;9698;51.976;7.570;2023-05-16T12:11:00;14.60;99.90
19132;DHT22;9698;51.976;7.570;2023-05-16T12:13:28;14.60;99.90
19132;DHT22;9698;51.976;7.570;2023-05-16T12:15:56;14.60;99.90
19132;DHT22;9698;51.976;7.570;2023-05-16T12:18:25;14.60;99.90
19132;DHT22;9698;51.976;7.570;2023-05-16T12:20:53;14.70;99.90
19132;DHT22;9698;51.976;7.570;2023-05-16T12:23:21;14.70;99.90
19132;DHT22;9698;51.976;7.570;2023-05-16T12:25:49;14.80;99.90
19132;DHT22;9698;51.976;7.570;2023-05-16T12:28:17;14.60;99.90
19132;DHT22;9698;51.976;7.570;2023-05-16T12:30:45;14.50;99.90
19132;DHT22;9698;51.976;7.570;2023-05-16T12:33:15;14.50;99.90
19132;DHT22;9698;51.976;7.570;2023-05-16T12:35:44;14.40;99.90
19132;DHT22;9698;51.976;7.570;2023-05-16T12:38:14;14.30;99.90
19132;DHT22;9698;51.976;7.570;2023-05-16T12:40:43;14.20;99.90
19132;DHT22;9698;51.976;7.570;2023-05-16T12:43:15;14.20;99.90
19132;DHT22;9698;51.976;7.570;2023-05-16T12:45:49;14.00;99.90
19132;DHT22;9698;51.976;7.570;2023-05-16T12:48:18;14.20;99.90
19132;DHT22;9698;51.976;7.570;2023-05-16T12:50:45;14.50;99.90
19132;DHT22;9698;51.976;7.570;2023-05-16T12:53:15;14.00;1.00
19132;DHT22;9698;51.976;7.570;2023-05-16T12:55:44;14.20;1.00
19132;DHT22;9698;51.976;7.570;2023-05-16T12:58:12;14.20;1.00
19132;DHT22;9698;51.976;7.570;2023-05-16T13:03:28;14.60;1.00
19132;DHT22;9698;51.976;7.570;2023-05-16T13:05:57;14.80;99.90
19132;DHT22;9698;51.976;7.570;2023-05-16T13:08:24;15.00;99.90
19132;DHT22;9698;51.976;7.570;2023-05-16T13:10:52;15.00;99.90
19132;DHT22;9698;51.976;7.570;2023-05-16T13:13:20;15.10;99.90
19132;DHT22;9698;51.976;7.570;2023-05-16T13:16:03;15.30;99.90
19132;DHT22;9698;51.976;7.570;2023-05-16T13:18:31;15.20;3.20
19132;DHT22;9698;51.976;7.570;2023-05-16T13:21:00;15.80;1.00
19132;DHT22;9698;51.976;7.570;2023-05-16T13:23:30;15.50;1.00
19132;DHT22;9698;51.976;7.570;2023-05-16T13:25:59;15.60;1.00
19132;DHT22;9698;51.976;7.570;2023-05-16T13:28:26;15.60;1.00
19132;DHT22;9698;51.976;7.570;2023-05-16T13:30:54;15.80;1.00
19132;DHT22;9698;51.976;7.570;2023-05-16T13:33:22;15.80;1.00
19132;DHT22;9698;51.976;7.570;2023-05-16T13:35:50;15.60;1.00
19132;DHT22;9698;51.976;7.570;2023-05-16T13:38:19;15.40;1.00
19132;DHT22;9698;51.976;7.570;2023-05-16T13:40:47;15.10;79.50
19132;DHT22;9698;51.976;7.570;2023-05-16T13:43:15;15.10;99.90
19132;DHT22;9698;51.976;7.570;2023-05-16T13:45:43;14.90;99.90
19132;DHT22;9698;51.976;7.570;2023-05-16T13:48:11;14.80;99.90
19132;DHT22;9698;51.976;7.570;2023-05-16T13:50:39;14.80;99.90
19132;DHT22;9698;51.976;7.570;2023-05-16T13:53:11;14.90;99.90
19132;DHT22;9698;51.976;7.570;2023-05-16T13:55:39;15.00;99.90
19132;DHT22;9698;51.976;7.570;2023-05-16T13:58:07;15.20;99.90
19132;DHT22;9698;51.976;7.570;2023-05-16T14:03:24;15.40;99.90
19132;DHT22;9698;51.976;7.570;2023-05-16T14:05:52;15.30;99.90
19132;DHT22;9698;51.976;7.570;2023-05-16T14:08:20;15.20;99.90
19132;DHT22;9698;51.976;7.570;2023-05-16T14:10:48;14.70;99.90
19132;DHT22;9698;51.976;7.570;2023-05-16T14:13:16;14.90;99.90
19132;DHT22;9698;51.976;7.570;2023-05-16T14:15:44;14.70;99.90
19132;DHT22;9698;51.976;7.570;2023-05-16T14:18:12;14.60;99.90
19132;DHT22;9698;51.976;7.570;2023-05-16T14:20:40;14.70;1.00
19132;DHT22;9698;51.976;7.570;2023-05-16T14:23:10;14.70;99.90
19132;DHT22;9698;51.976;7.570;2023-05-16T14:25:38;14.70;99.90
19132;DHT22;9698;51.976;7.570;2023-05-16T14:28:06;14.80;99.90
19132;DHT22;9698;51.976;7.570;2023-05-16T14:30:34;14.80;99.90
19132;DHT22;9698;51.976;7.570;2023-05-16T14:33:03;14.90;99.90
19132;DHT22;9698;51.976;7.570;2023-05-16T14:35:33;14.80;99.90
19132;DHT22;9698;51.976;7.570;2023-05-16T14:38:01;14.80;99.90
19132;DHT22;9698;51.976;7.570;2023-05-16T14:40:29;14.70;99.90
19132;DHT22;9698;51.976;7.570;2023-05-16T14:45:44;14.60;99.90
19132;DHT22;9698;51.976;7.570;2023-05-16T14:48:12;14.60;1.00
19132;DHT22;9698;51.976;7.570;2023-05-16T14:50:40;14.70;1.00
19132;DHT22;9698;51.976;7.570;2023-05-16T14:53:08;14.70;1.00
19132;DHT22;9698;51.976;7.570;2023-05-16T14:55:36;14.70;1.00
19132;DHT22;9698;51.976;7.570;2023-05-16T14:58:04;14.70;1.00
19132;DHT22;9698;51.976;7.570;2023-05-16T15:00:32;14.30;1.00
19132;DHT22;9698;51.976;7.570;2023-05-16T15:03:00;14.30;1.00
19132;DHT22;9698;51.976;7.570;2023-05-16T15:05:28;14.60;1.00
19132;DHT22;9698;51.976;7.570;2023-05-16T15:07:56;14.40;1.00
19132;DHT22;9698;51.976;7.570;2023-05-16T15:10:25;14.40;1.00
19132;DHT22;9698;51.976;7.570;2023-05-16T15:12:53;14.50;1.00
19132;DHT22;9698;51.976;7.570;2023-05-16T15:15:21;14.50;1.00
19132;DHT22;9698;51.976;7.570;2023-05-16T15:17:49;14.40;1.00
19132;DHT22;9698;51.976;7.570;2023-05-16T15:20:17;14.40;1.00
19132;DHT22;9698;51.976;7.570;2023-05-16T15:22:48;14.40;1.00
19132;DHT22;9698;51.976;7.570;2023-05-16T15:28:04;14.60;1.00
19132;DHT22;9698;51.976;7.570;2023-05-16T15:30:32;14.50;1.00
19132;DHT22;9698;51.976;7.570;2023-05-16T15:33:00;14.30;1.00
19132;DHT22;9698;51.976;7.570;2023-05-16T15:35:28;14.30;1.00
19132;DHT22;9698;51.976;7.570;2023-05-16T15:37:56;14.20;1.00
19132;DHT22;9698;51.976;7.570;2023-05-16T15:40:26;14.20;1.00
19132;DHT22;9698;51.976;7.570;2023-05-16T15:42:54;14.10;1.00
19132;DHT22;9698;51.976;7.570;2023-05-16T15:45:22;14.10;1.00
19132;DHT22;9698;51.976;7.570;2023-05-16T15:47:50;14.00;1.00
19132;DHT22;9698;51.976;7.570;2023-05-16T15:53:04;13.90;1.00
19132;DHT22;9698;51.976;7.570;2023-05-16T15:55:32;14.00;1.00
19132;DHT22;9698;51.976;7.570;2023-05-16T15:58:00;13.80;1.00
19132;DHT22;9698;51.976;7.570;2023-05-16T16:00:28;13.80;1.00
19132;DHT22;9698;51.976;7.570;2023-05-16T16:02:56;13.70;1.00
19132;DHT22;9698;51.976;7.570;2023-05-16T16:05:24;13.80;1.00
19132;DHT22;9698;51.976;7.570;2023-05-16T16:07:52;13.90;1.00
19132;DHT22;9698;51.976;7.570;2023-05-16T16:10:20;13.90;1.00
19132;DHT22;9698;51.976;7.570;2023-05-16T16:12:58;13.90;1.00
19132;DHT22;9698;51.976;7.570;2023-05-16T16:18:13;13.90;1.00
19132;DHT22;9698;51.976;7.570;2023-05-16T16:20:41;14.00;1.00
19132;DHT22;9698;51.976;7.570;2023-05-16T16:23:09;14.10;1.00
19132;DHT22;9698;51.976;7.570;2023-05-16T16:25:37;14.20;1.00
19132;DHT22;9698;51.976;7.570;2023-05-16T16:28:05;14.30;1.00
19132;DHT22;9698;51.976;7.570;2023-05-16T16:30:33;14.40;99.90
19132;DHT22;9698;51.976;7.570;2023-05-16T16:33:02;15.00;99.90
19132;DHT22;9698;51.976;7.570;2023-05-16T16:35:30;15.50;99.90
19132;DHT22;9698;51.976;7.570;2023-05-16T16:37:59;15.30;1.00
19132;DHT22;9698;51.976;7.570;2023-05-16T16:40:34;15.20;1.00
19132;DHT22;9698;51.976;7.570;2023-05-16T16:43:02;15.00;1.00
19132;DHT22;9698;51.976;7.570;2023-05-16T16:45:32;14.90;95.70